STN weather

London Stansted Airport
London, England, United Kingdom

Public forecast

Using degrees Celsius for public forecast. Weather courtesy of forecast.io.

METAR (pilot weather report)

Retrieved 2017/11/24 13:20 UTC (4 minutes ago):

EGSS 241320Z AUTO 31003KT 9999 NCD 07/01 Q1011

TAF (pilot weather forecast)

Retrieved 2017/11/24 12:15 UTC (1 hour ago):

TAF EGSS 241058Z 2412/2518 29008KT 9999 FEW040